createdAt,value
2019-03-12T00:00:08.726Z,18.37
2019-03-12T00:02:42.929Z,16.62
2019-03-12T00:05:16.732Z,18.00
2019-03-12T00:07:50.868Z,15.85
2019-03-12T00:10:24.812Z,16.02
2019-03-12T00:12:58.594Z,17.73
2019-03-12T00:15:32.883Z,18.67
2019-03-12T00:18:06.971Z,18.15
2019-03-12T00:20:40.696Z,14.05
2019-03-12T00:23:14.913Z,18.87
2019-03-12T00:25:48.927Z,18.75
2019-03-12T00:28:23.138Z,17.95
2019-03-12T00:30:57.261Z,18.37
2019-03-12T00:33:31.129Z,16.30
2019-03-12T00:36:05.379Z,18.82
2019-03-12T00:38:38.961Z,16.95
2019-03-12T00:41:13.102Z,17.15
2019-03-12T00:43:47.475Z,17.77
2019-03-12T00:46:21.633Z,17.23
2019-03-12T00:48:54.969Z,19.80
2019-03-12T00:51:28.877Z,19.90
2019-03-12T00:54:02.841Z,19.77
2019-03-12T00:56:36.675Z,16.75
2019-03-12T00:59:09.966Z,19.87
2019-03-12T01:01:44.054Z,17.07
2019-03-12T01:04:17.893Z,15.55
2019-03-12T01:06:51.114Z,17.00
2019-03-12T01:09:25.141Z,18.42
2019-03-12T01:11:59.278Z,21.62
2019-03-12T01:14:33.016Z,18.90
2019-03-12T01:17:07.815Z,16.95
2019-03-12T01:19:41.931Z,17.92
2019-03-12T01:22:15.626Z,16.27
2019-03-12T01:24:49.848Z,15.78
2019-03-12T01:27:23.555Z,15.55
2019-03-12T01:29:56.762Z,19.23
2019-03-12T01:32:30.962Z,15.08
2019-03-12T01:35:04.661Z,17.80
2019-03-12T01:37:38.014Z,14.33
2019-03-12T01:40:12.921Z,17.23
2019-03-12T01:42:46.577Z,17.45
2019-03-12T01:45:20.696Z,14.25
2019-03-12T01:47:54.485Z,16.17
2019-03-12T01:50:28.735Z,15.05
2019-03-12T01:53:02.955Z,15.60
2019-03-12T01:55:37.058Z,16.00
2019-03-12T01:58:10.882Z,15.63
2019-03-12T02:00:44.857Z,15.40
2019-03-12T02:03:18.929Z,13.90
2019-03-12T02:05:53.138Z,14.28
2019-03-12T02:08:26.382Z,13.90
2019-03-12T02:11:00.409Z,14.47
2019-03-12T02:13:34.938Z,16.73
2019-03-12T02:16:09.051Z,14.33
2019-03-12T02:18:43.160Z,15.50
2019-03-12T02:21:17.256Z,14.93
2019-03-12T02:23:51.512Z,14.30
2019-03-12T02:26:25.612Z,15.60
2019-03-12T02:28:59.614Z,16.75
2019-03-12T02:31:33.915Z,14.70
2019-03-12T02:34:08.174Z,15.25
2019-03-12T02:36:42.244Z,14.45
2019-03-12T02:39:16.252Z,15.78
2019-03-12T02:41:50.495Z,12.37
2019-03-12T02:44:24.732Z,14.68
2019-03-12T02:46:58.814Z,15.38
2019-03-12T02:49:32.557Z,15.00
2019-03-12T02:52:06.313Z,13.62
2019-03-12T02:54:39.933Z,14.58
2019-03-12T02:57:14.127Z,16.93
2019-03-12T02:59:47.908Z,13.03
2019-03-12T03:02:22.198Z,17.23
2019-03-12T03:04:55.797Z,18.35
2019-03-12T03:07:53.338Z,16.00
2019-03-12T03:10:27.417Z,15.18
2019-03-12T03:13:00.806Z,13.90
2019-03-12T03:15:44.296Z,17.23
2019-03-12T03:18:18.019Z,15.13
2019-03-12T03:20:51.727Z,15.15
2019-03-12T03:23:25.473Z,16.15
2019-03-12T03:25:59.225Z,18.10
2019-03-12T03:28:33.347Z,16.37
2019-03-12T03:31:07.138Z,18.23
2019-03-12T03:33:41.362Z,17.07
2019-03-12T03:36:15.429Z,16.37
2019-03-12T03:38:48.639Z,17.30
2019-03-12T03:41:22.879Z,16.62
2019-03-12T03:43:57.078Z,16.32
2019-03-12T03:46:30.894Z,18.17
2019-03-12T03:49:04.624Z,17.90
2019-03-12T03:51:37.865Z,16.07
2019-03-12T03:54:11.587Z,18.05
2019-03-12T03:56:45.278Z,15.70
2019-03-12T03:59:19.331Z,17.45
2019-03-12T04:01:53.541Z,17.85
2019-03-12T04:04:27.670Z,18.17
2019-03-12T04:07:01.317Z,19.23
2019-03-12T04:09:35.119Z,18.00
2019-03-12T04:12:09.866Z,15.78
2019-03-12T04:14:44.005Z,15.63
2019-03-12T04:17:18.326Z,25.80
2019-03-12T04:19:51.582Z,17.50
2019-03-12T04:22:25.796Z,18.65
2019-03-12T04:24:59.922Z,16.87
2019-03-12T04:27:34.140Z,17.30
2019-03-12T04:30:08.233Z,20.23
2019-03-12T04:32:41.982Z,18.50
2019-03-12T04:35:17.124Z,17.55
2019-03-12T04:37:53.258Z,18.45
2019-03-12T04:40:29.419Z,19.95
2019-03-12T04:43:03.627Z,18.45
2019-03-12T04:45:37.373Z,18.12
2019-03-12T04:48:11.112Z,20.57
2019-03-12T04:50:45.282Z,22.50
2019-03-12T04:53:19.382Z,19.98
2019-03-12T04:55:53.478Z,17.70
2019-03-12T04:58:28.010Z,16.12
2019-03-12T05:01:01.295Z,19.17
2019-03-12T05:03:35.308Z,21.27
2019-03-12T05:06:09.300Z,19.42
2019-03-12T05:08:43.973Z,18.40
2019-03-12T05:11:18.167Z,20.77
2019-03-12T05:14:41.657Z,20.15
2019-03-12T05:17:34.752Z,14.85
2019-03-12T05:20:09.015Z,17.37
2019-03-12T05:22:41.981Z,20.80
2019-03-12T05:25:14.595Z,17.73
2019-03-12T05:27:47.226Z,16.57
2019-03-12T05:30:20.512Z,18.07
2019-03-12T05:32:54.664Z,20.75
2019-03-12T05:35:27.103Z,19.55
2019-03-12T05:37:59.666Z,20.50
2019-03-12T05:40:32.983Z,20.57
2019-03-12T05:43:05.935Z,20.20
2019-03-12T05:45:38.840Z,22.42
2019-03-12T05:48:11.798Z,25.02
2019-03-12T05:50:44.286Z,20.90
2019-03-12T05:53:16.903Z,18.87
2019-03-12T05:55:49.356Z,22.13
2019-03-12T05:58:22.347Z,21.05
2019-03-12T06:00:55.508Z,18.48
2019-03-12T06:03:29.261Z,18.55
2019-03-12T06:06:02.227Z,15.98
2019-03-12T06:08:34.669Z,15.93
2019-03-12T06:11:06.742Z,17.87
2019-03-12T06:13:39.644Z,13.80
2019-03-12T06:16:12.890Z,17.67
2019-03-12T06:18:45.244Z,18.02
2019-03-12T06:21:18.293Z,15.18
2019-03-12T06:23:51.674Z,14.55
2019-03-12T06:26:24.535Z,15.32
2019-03-12T06:28:56.578Z,13.75
2019-03-12T06:32:02.323Z,13.60
2019-03-12T06:34:45.079Z,15.60
2019-03-12T06:37:28.981Z,14.85
2019-03-12T06:40:30.494Z,14.07
2019-03-12T06:43:12.596Z,12.55
2019-03-12T06:46:07.460Z,11.93
2019-03-12T06:48:54.198Z,11.00
2019-03-12T06:52:03.963Z,12.58
2019-03-12T06:55:01.240Z,13.20
2019-03-12T06:57:56.669Z,16.50
2019-03-12T07:00:52.896Z,14.98
2019-03-12T07:03:43.964Z,14.50
2019-03-12T07:06:39.303Z,14.03
2019-03-12T07:09:26.262Z,13.53
2019-03-12T07:12:07.166Z,17.15
2019-03-12T07:15:02.015Z,15.75
2019-03-12T07:17:55.504Z,15.53
2019-03-12T07:20:45.959Z,14.60
2019-03-12T07:23:28.561Z,15.88
2019-03-12T07:26:24.267Z,16.95
2019-03-12T07:29:10.639Z,14.68
2019-03-12T07:32:40.454Z,14.65
2019-03-12T07:35:24.913Z,17.98
2019-03-12T07:38:07.184Z,18.05
2019-03-12T07:41:05.604Z,17.77
2019-03-12T07:43:46.680Z,13.88
2019-03-12T07:46:50.566Z,19.40
2019-03-12T07:49:42.225Z,21.27
2019-03-12T07:52:37.816Z,17.15
2019-03-12T07:55:38.616Z,16.45
2019-03-12T07:58:42.325Z,12.90
2019-03-12T08:01:39.063Z,16.00
2019-03-12T08:04:18.637Z,15.70
2019-03-12T08:07:13.235Z,16.93
2019-03-12T08:10:22.488Z,15.50
2019-03-12T08:13:26.551Z,16.77
2019-03-12T08:16:13.142Z,16.77
2019-03-12T08:19:15.388Z,17.73
2019-03-12T08:22:01.261Z,18.65
2019-03-12T08:24:56.158Z,18.02
2019-03-12T08:27:48.421Z,15.08
2019-03-12T08:30:43.600Z,16.40
2019-03-12T08:33:49.564Z,13.13
2019-03-12T08:36:36.482Z,15.38
2019-03-12T08:39:14.807Z,14.07
2019-03-12T08:42:04.805Z,12.75
2019-03-12T08:44:55.453Z,15.40
2019-03-12T08:47:51.357Z,15.28
2019-03-12T08:50:45.617Z,16.57
2019-03-12T08:53:35.277Z,16.32
2019-03-12T08:56:35.776Z,12.23
2019-03-12T08:59:43.478Z,17.10
2019-03-12T09:02:27.452Z,11.12
2019-03-12T09:05:26.067Z,14.28
2019-03-12T09:08:17.148Z,12.07
2019-03-12T09:11:03.597Z,13.43
2019-03-12T09:13:54.402Z,12.70
2019-03-12T09:16:39.575Z,16.50
2019-03-12T09:19:28.437Z,13.08
2019-03-12T09:22:21.521Z,16.23
2019-03-12T09:25:31.605Z,12.13
2019-03-12T09:28:42.908Z,11.20
2019-03-12T09:31:45.638Z,12.93
2019-03-12T09:34:38.600Z,13.35
2019-03-12T09:37:41.874Z,15.00
2019-03-12T09:40:42.040Z,14.78
2019-03-12T09:43:27.096Z,11.35
2019-03-12T09:46:26.477Z,13.03
2019-03-12T09:49:22.316Z,11.97
2019-03-12T09:52:21.193Z,10.65
2019-03-12T09:55:05.858Z,9.35
2019-03-12T09:57:51.941Z,9.23
2019-03-12T10:00:54.284Z,9.95
2019-03-12T10:03:57.114Z,8.35
2019-03-12T10:06:48.366Z,8.85
2019-03-12T10:09:40.870Z,8.83
2019-03-12T10:12:31.724Z,13.70
2019-03-12T10:15:43.043Z,8.50
2019-03-12T10:18:35.580Z,10.45
2019-03-12T10:21:38.021Z,8.98
2019-03-12T10:24:29.158Z,9.30
2019-03-12T10:27:40.402Z,12.85
2019-03-12T10:30:40.281Z,11.30
2019-03-12T10:33:28.238Z,9.08
2019-03-12T10:36:26.083Z,9.28
2019-03-12T10:40:15.448Z,9.80
2019-03-12T10:43:38.210Z,8.50
2019-03-12T10:46:43.577Z,8.33
2019-03-12T10:49:18.241Z,7.92
2019-03-12T10:51:54.270Z,10.70
2019-03-12T10:54:29.005Z,6.72
2019-03-12T10:57:03.541Z,11.28
2019-03-12T10:59:38.476Z,7.20
2019-03-12T11:02:14.874Z,9.60
2019-03-12T11:04:50.077Z,8.33
2019-03-12T11:07:25.998Z,8.90
2019-03-12T11:10:00.971Z,9.63
2019-03-12T11:12:34.339Z,5.87
2019-03-12T11:15:08.526Z,9.35
2019-03-12T11:17:49.432Z,6.67
2019-03-12T11:20:16.288Z,6.95
2019-03-12T11:22:49.720Z,7.65
2019-03-12T11:25:27.478Z,11.95
2019-03-12T11:27:57.185Z,7.10
2019-03-12T11:30:31.075Z,7.42
2019-03-12T11:33:06.722Z,8.43
2019-03-12T11:35:40.096Z,10.25
2019-03-12T11:38:13.770Z,8.23
2019-03-12T11:40:47.932Z,10.15
2019-03-12T11:43:22.479Z,10.28
2019-03-12T11:45:56.602Z,9.78
2019-03-12T11:48:29.966Z,9.90
2019-03-12T11:51:02.817Z,11.08
2019-03-12T11:53:36.306Z,7.97
2019-03-12T11:56:10.369Z,6.42
2019-03-12T11:58:44.088Z,8.73
2019-03-12T12:01:17.157Z,7.15
2019-03-12T12:03:51.226Z,7.90
2019-03-12T12:06:25.332Z,8.33
2019-03-12T12:08:58.945Z,6.75
2019-03-12T12:11:32.958Z,8.48
2019-03-12T12:14:07.039Z,9.00
2019-03-12T12:16:41.075Z,8.98
2019-03-12T12:19:15.110Z,10.28
2019-03-12T12:21:49.102Z,7.53
2019-03-12T12:24:22.470Z,9.45
2019-03-12T12:26:56.510Z,8.13
2019-03-12T12:29:30.190Z,7.67
2019-03-12T12:32:02.759Z,4.97
2019-03-12T12:34:35.161Z,4.92
2019-03-12T12:37:08.310Z,8.00
2019-03-12T12:39:41.063Z,6.92
2019-03-12T12:42:14.657Z,12.33
2019-03-12T12:44:48.182Z,8.70
2019-03-12T12:47:22.239Z,8.35
2019-03-12T12:50:05.502Z,10.90
2019-03-12T12:52:39.633Z,6.17
2019-03-12T12:55:13.818Z,7.70
2019-03-12T12:57:48.278Z,7.78
2019-03-12T13:00:24.050Z,7.08
2019-03-12T13:02:59.430Z,6.33
2019-03-12T13:05:33.076Z,5.80
2019-03-12T13:08:07.746Z,6.55
2019-03-12T13:10:42.301Z,9.23
2019-03-12T13:13:17.911Z,7.28
2019-03-12T13:15:51.918Z,7.03
2019-03-12T13:18:25.949Z,6.97
2019-03-12T13:21:01.397Z,5.58
2019-03-12T13:23:37.341Z,6.28
2019-03-12T13:26:11.834Z,11.85
2019-03-12T13:28:46.201Z,7.08
2019-03-12T13:31:20.800Z,6.70
2019-03-12T13:33:53.277Z,7.72
2019-03-12T13:36:29.099Z,9.70
2019-03-12T13:39:07.572Z,6.83
2019-03-12T13:41:42.558Z,7.92
2019-03-12T13:44:18.693Z,6.97
2019-03-12T13:46:52.120Z,6.53
2019-03-12T13:49:26.163Z,8.88
2019-03-12T13:52:01.125Z,10.68
2019-03-12T13:54:35.196Z,10.25
2019-03-12T13:57:11.920Z,8.40
2019-03-12T13:59:46.618Z,6.12
2019-03-12T14:02:22.919Z,7.25
2019-03-12T14:04:57.112Z,7.75
2019-03-12T14:07:29.739Z,6.40
2019-03-12T14:10:03.678Z,7.58
2019-03-12T14:12:37.633Z,7.95
2019-03-12T14:15:13.748Z,8.30
2019-03-12T14:17:46.832Z,7.22
2019-03-12T14:20:52.599Z,6.83
2019-03-12T14:23:38.557Z,6.75
2019-03-12T14:26:11.987Z,6.80
2019-03-12T14:28:44.443Z,6.97
2019-03-12T14:31:17.290Z,8.00
2019-03-12T14:33:51.387Z,6.78
2019-03-12T14:36:23.368Z,10.35
2019-03-12T14:38:55.988Z,8.80
2019-03-12T14:41:29.586Z,7.10
2019-03-12T14:44:03.173Z,6.08
2019-03-12T14:46:36.084Z,5.80
2019-03-12T14:49:10.453Z,4.37
2019-03-12T14:52:08.730Z,7.87
2019-03-12T14:54:42.608Z,6.35
2019-03-12T14:57:16.476Z,9.05
2019-03-12T14:59:49.414Z,8.53
2019-03-12T15:02:22.794Z,12.70
2019-03-12T15:04:55.079Z,7.97
2019-03-12T15:07:27.939Z,7.40
2019-03-12T15:10:00.441Z,5.37
2019-03-12T15:12:32.827Z,7.65
2019-03-12T15:15:06.233Z,6.62
2019-03-12T15:17:38.299Z,10.53
2019-03-12T15:20:11.350Z,11.48
2019-03-12T15:22:43.796Z,14.05
2019-03-12T15:25:16.784Z,11.57
2019-03-12T15:27:49.745Z,10.95
2019-03-12T15:30:22.047Z,14.10
2019-03-12T15:32:55.895Z,9.13
2019-03-12T15:35:30.129Z,9.03
2019-03-12T15:38:03.410Z,7.80
2019-03-12T15:40:37.123Z,11.30
2019-03-12T15:43:11.352Z,9.80
2019-03-12T15:45:45.157Z,15.08
2019-03-12T15:48:21.408Z,15.20
2019-03-12T15:50:54.204Z,15.75
2019-03-12T15:53:28.534Z,11.48
2019-03-12T15:56:02.720Z,12.55
2019-03-12T15:58:36.051Z,12.18
2019-03-12T16:01:10.268Z,12.73
2019-03-12T16:03:44.355Z,12.98
2019-03-12T16:06:18.583Z,10.40
2019-03-12T16:08:51.943Z,14.85
2019-03-12T16:11:25.572Z,19.00
2019-03-12T16:13:59.689Z,15.20
2019-03-12T16:16:33.875Z,15.43
2019-03-12T16:19:07.501Z,20.95
2019-03-12T16:21:41.323Z,28.47
2019-03-12T16:24:15.526Z,24.52
2019-03-12T16:26:50.167Z,28.35
2019-03-12T16:29:24.358Z,27.75
2019-03-12T16:31:58.192Z,31.77
2019-03-12T16:34:31.855Z,21.80
2019-03-12T16:37:05.579Z,25.75
2019-03-12T16:39:40.085Z,26.82
2019-03-12T16:42:14.730Z,25.25
2019-03-12T16:44:48.844Z,28.35
2019-03-12T16:47:22.248Z,30.75
2019-03-12T16:49:55.531Z,35.25
2019-03-12T16:52:28.849Z,43.75
2019-03-12T16:55:02.755Z,50.70
2019-03-12T16:57:39.561Z,39.88
2019-03-12T17:00:14.790Z,40.83
2019-03-12T17:02:48.579Z,31.50
2019-03-12T17:05:26.004Z,25.50
2019-03-12T17:07:58.626Z,28.90
2019-03-12T17:10:32.336Z,27.05
2019-03-12T17:13:06.053Z,25.65
2019-03-12T17:15:40.334Z,23.07
2019-03-12T17:18:13.606Z,21.87
2019-03-12T17:20:48.275Z,26.70
2019-03-12T17:23:21.959Z,36.93
2019-03-12T17:25:56.089Z,40.28
2019-03-12T17:28:29.908Z,52.33
2019-03-12T17:31:03.824Z,70.78
2019-03-12T17:33:37.925Z,76.33
2019-03-12T17:36:12.133Z,74.05
2019-03-12T17:38:47.270Z,69.87
2019-03-12T17:41:21.415Z,52.30
2019-03-12T17:43:57.780Z,45.43
2019-03-12T17:46:31.254Z,47.33
2019-03-12T17:49:05.189Z,38.67
2019-03-12T17:51:39.488Z,41.77
2019-03-12T17:54:11.564Z,36.38
2019-03-12T17:56:44.555Z,36.03
2019-03-12T17:59:17.116Z,34.25
2019-03-12T18:01:49.469Z,39.40
2019-03-12T18:04:22.883Z,38.58
2019-03-12T18:06:55.708Z,39.83
2019-03-12T18:09:29.136Z,35.05
2019-03-12T18:12:02.481Z,35.78
2019-03-12T18:14:34.988Z,38.28
2019-03-12T18:17:08.313Z,41.25
2019-03-12T18:19:41.235Z,43.55
2019-03-12T18:22:15.141Z,41.00
2019-03-12T18:24:48.091Z,41.85
2019-03-12T18:27:21.021Z,40.85
2019-03-12T18:29:54.090Z,34.48
2019-03-12T18:32:26.140Z,29.37
2019-03-12T18:34:58.687Z,28.12
2019-03-12T18:37:31.566Z,25.02
2019-03-12T18:40:04.623Z,31.00
2019-03-12T18:42:37.608Z,28.12
2019-03-12T18:45:13.241Z,30.30
2019-03-12T18:47:45.781Z,32.08
2019-03-12T18:50:20.350Z,28.87
2019-03-12T18:52:53.002Z,25.92
2019-03-12T18:55:56.626Z,31.10
2019-03-12T18:58:29.105Z,36.25
2019-03-12T19:01:04.817Z,47.50
2019-03-12T19:03:38.149Z,56.77
2019-03-12T19:06:11.522Z,49.25
2019-03-12T19:08:48.142Z,42.48
2019-03-12T19:11:18.951Z,42.00
2019-03-12T19:13:50.975Z,47.75
2019-03-12T19:16:24.186Z,40.17
2019-03-12T19:18:59.853Z,40.03
2019-03-12T19:21:33.146Z,39.03
2019-03-12T19:24:09.790Z,36.40
2019-03-12T19:26:42.735Z,37.83
2019-03-12T19:29:15.578Z,41.80
2019-03-12T19:32:06.707Z,53.92
2019-03-12T19:34:41.399Z,47.17
2019-03-12T19:37:14.436Z,43.25
2019-03-12T19:39:48.211Z,40.28
2019-03-12T19:42:21.143Z,36.42
2019-03-12T19:44:53.658Z,33.73
2019-03-12T19:47:26.848Z,36.38
2019-03-12T19:49:59.432Z,38.23
2019-03-12T19:52:32.855Z,37.33
2019-03-12T19:55:05.227Z,42.33
2019-03-12T19:57:38.785Z,47.90
2019-03-12T20:00:15.181Z,43.00
2019-03-12T20:02:49.811Z,50.17
2019-03-12T20:05:22.678Z,49.73
2019-03-12T20:07:55.630Z,48.28
2019-03-12T20:11:30.928Z,54.10
2019-03-12T20:15:13.505Z,56.40
2019-03-12T20:18:51.167Z,55.50
2019-03-12T20:22:22.747Z,58.78
2019-03-12T20:25:49.138Z,56.42
2019-03-12T20:29:20.630Z,50.73
2019-03-12T20:33:16.278Z,47.10
2019-03-12T20:36:49.555Z,42.58
2019-03-12T20:40:38.835Z,44.50
2019-03-12T20:44:15.451Z,44.20
2019-03-12T20:47:45.150Z,49.77
2019-03-12T20:51:43.010Z,57.30
2019-03-12T20:55:10.027Z,73.85
2019-03-12T20:59:10.566Z,75.65
2019-03-12T21:02:50.331Z,65.70
2019-03-12T21:06:42.377Z,61.65
2019-03-12T21:10:16.393Z,58.33
2019-03-12T21:13:51.402Z,57.27
2019-03-12T21:17:49.710Z,52.98
2019-03-12T21:21:17.101Z,56.48
2019-03-12T21:24:59.032Z,52.98
2019-03-12T21:28:42.366Z,63.95
2019-03-12T21:31:15.812Z,64.77
2019-03-12T21:33:48.235Z,58.55
2019-03-12T21:36:21.308Z,62.48
2019-03-12T21:38:54.805Z,56.88
2019-03-12T21:41:26.798Z,53.38
2019-03-12T21:44:01.747Z,55.98
2019-03-12T21:46:35.887Z,49.60
2019-03-12T21:49:09.840Z,57.03
2019-03-12T21:51:43.912Z,49.53
2019-03-12T21:54:17.530Z,47.73
2019-03-12T21:56:51.139Z,57.65
2019-03-12T21:59:24.971Z,56.13
2019-03-12T22:01:59.053Z,54.53
2019-03-12T22:04:32.858Z,56.50
2019-03-12T22:07:07.060Z,62.03
2019-03-12T22:09:41.195Z,58.70
2019-03-12T22:12:15.440Z,54.23
2019-03-12T22:14:49.301Z,58.38
2019-03-12T22:17:23.326Z,52.17
2019-03-12T22:19:57.448Z,55.28
2019-03-12T22:22:47.644Z,56.95
2019-03-12T22:25:22.282Z,55.43
2019-03-12T22:27:56.501Z,55.45
2019-03-12T22:30:29.843Z,61.58
2019-03-12T22:33:03.678Z,56.48
2019-03-12T22:35:37.380Z,60.03
2019-03-12T22:38:10.654Z,50.35
2019-03-12T22:40:44.488Z,55.83
2019-03-12T22:43:18.722Z,70.03
2019-03-12T22:45:52.089Z,76.75
2019-03-12T22:48:26.087Z,65.37
2019-03-12T22:50:59.832Z,52.73
2019-03-12T22:53:34.647Z,58.55
2019-03-12T22:56:08.494Z,55.48
2019-03-12T22:58:42.257Z,52.15
2019-03-12T23:01:16.064Z,52.55
2019-03-12T23:03:50.206Z,46.55
2019-03-12T23:06:23.905Z,51.58
2019-03-12T23:08:58.237Z,55.12
2019-03-12T23:11:31.459Z,49.70
2019-03-12T23:14:04.970Z,50.43
2019-03-12T23:16:38.820Z,49.27
2019-03-12T23:19:12.422Z,55.73
2019-03-12T23:21:45.721Z,48.45
2019-03-12T23:24:18.809Z,45.52
2019-03-12T23:26:52.306Z,50.75
2019-03-12T23:29:26.122Z,47.20
2019-03-12T23:31:58.939Z,51.60
2019-03-12T23:34:33.009Z,58.75
2019-03-12T23:37:06.504Z,50.63
2019-03-12T23:39:40.680Z,41.13
2019-03-12T23:42:15.561Z,45.43
2019-03-12T23:44:49.667Z,45.58
2019-03-12T23:47:22.777Z,44.98
2019-03-12T23:49:56.600Z,49.13
2019-03-12T23:52:31.071Z,41.53
2019-03-12T23:55:05.388Z,42.67
2019-03-12T23:57:38.441Z,40.40
